sensor_id;sensor_type;location;lat;lon;timestamp;noise_LAeq;noise_LA_min;noise_LA_max;noise_LA01;noise_LA95
75467;Laerm;64050;50.634;3.062;2023-01-16T00:00:26;43.59;39.45;51.53;;
75467;Laerm;64050;50.634;3.062;2023-01-16T00:02:52;44.26;37.69;59.94;;
75467;Laerm;64050;50.634;3.062;2023-01-16T00:05:17;40.92;37.22;51.10;;
75467;Laerm;64050;50.634;3.062;2023-01-16T00:07:42;42.85;36.59;65.91;;
75467;Laerm;64050;50.634;3.062;2023-01-16T00:10:08;44.38;36.99;60.93;;
75467;Laerm;64050;50.634;3.062;2023-01-16T00:12:33;47.85;44.63;52.96;;
75467;Laerm;64050;50.634;3.062;2023-01-16T00:14:58;47.32;44.44;54.26;;
75467;Laerm;64050;50.634;3.062;2023-01-16T00:17:23;47.55;44.50;53.13;;
75467;Laerm;64050;50.634;3.062;2023-01-16T00:19:49;47.16;43.89;52.81;;
75467;Laerm;64050;50.634;3.062;2023-01-16T00:22:14;46.49;39.48;51.61;;
75467;Laerm;64050;50.634;3.062;2023-01-16T00:24:39;42.78;38.95;56.42;;
75467;Laerm;64050;50.634;3.062;2023-01-16T00:27:04;41.62;37.40;51.40;;
75467;Laerm;64050;50.634;3.062;2023-01-16T00:29:29;44.24;37.24;55.72;;
75467;Laerm;64050;50.634;3.062;2023-01-16T00:31:55;47.15;43.80;60.39;;
75467;Laerm;64050;50.634;3.062;2023-01-16T00:34:20;47.34;44.37;51.32;;
75467;Laerm;64050;50.634;3.062;2023-01-16T00:36:45;47.25;44.06;50.37;;
75467;Laerm;64050;50.634;3.062;2023-01-16T00:39:10;47.51;44.43;52.00;;
75467;Laerm;64050;50.634;3.062;2023-01-16T00:41:36;42.34;36.64;54.04;;
75467;Laerm;64050;50.634;3.062;2023-01-16T00:44:01;41.74;36.51;49.67;;
75467;Laerm;64050;50.634;3.062;2023-01-16T00:46:26;42.60;39.08;51.42;;
75467;Laerm;64050;50.634;3.062;2023-01-16T00:48:54;42.89;38.81;47.37;;
75467;Laerm;64050;50.634;3.062;2023-01-16T00:51:19;39.58;36.05;46.87;;
75467;Laerm;64050;50.634;3.062;2023-01-16T00:53:44;41.17;36.00;52.06;;
75467;Laerm;64050;50.634;3.062;2023-01-16T00:56:10;45.73;37.01;50.57;;
75467;Laerm;64050;50.634;3.062;2023-01-16T00:58:35;47.19;44.30;51.13;;
75467;Laerm;64050;50.634;3.062;2023-01-16T01:01:00;47.41;44.58;51.47;;
75467;Laerm;64050;50.634;3.062;2023-01-16T01:03:27;47.19;44.36;51.38;;
75467;Laerm;64050;50.634;3.062;2023-01-16T01:05:52;47.35;44.08;52.18;;
75467;Laerm;64050;50.634;3.062;2023-01-16T01:08:18;47.48;43.83;51.83;;
75467;Laerm;64050;50.634;3.062;2023-01-16T01:10:43;48.01;45.02;50.67;;
75467;Laerm;64050;50.634;3.062;2023-01-16T01:13:08;48.25;44.65;55.40;;
75467;Laerm;64050;50.634;3.062;2023-01-16T01:15:34;47.51;43.84;52.85;;
75467;Laerm;64050;50.634;3.062;2023-01-16T01:17:59;47.38;44.27;51.60;;
75467;Laerm;64050;50.634;3.062;2023-01-16T01:20:24;47.87;44.45;55.31;;
75467;Laerm;64050;50.634;3.062;2023-01-16T01:22:49;47.41;44.38;52.70;;
75467;Laerm;64050;50.634;3.062;2023-01-16T01:25:15;47.72;44.04;51.76;;
75467;Laerm;64050;50.634;3.062;2023-01-16T01:27:40;47.54;44.53;56.67;;
75467;Laerm;64050;50.634;3.062;2023-01-16T01:30:05;43.79;37.46;56.58;;
75467;Laerm;64050;50.634;3.062;2023-01-16T01:32:31;44.29;39.40;69.56;;
75467;Laerm;64050;50.634;3.062;2023-01-16T01:34:56;43.56;39.73;51.07;;
75467;Laerm;64050;50.634;3.062;2023-01-16T01:37:23;41.66;37.13;46.91;;
75467;Laerm;64050;50.634;3.062;2023-01-16T01:39:48;47.30;38.14;60.69;;
75467;Laerm;64050;50.634;3.062;2023-01-16T01:42:15;47.69;44.44;53.87;;
75467;Laerm;64050;50.634;3.062;2023-01-16T01:45:06;47.50;44.10;57.59;;
75467;Laerm;64050;50.634;3.062;2023-01-16T01:47:32;47.64;44.78;50.70;;
75467;Laerm;64050;50.634;3.062;2023-01-16T01:49:59;44.80;39.45;50.54;;
75467;Laerm;64050;50.634;3.062;2023-01-16T01:52:26;43.45;40.78;52.75;;
75467;Laerm;64050;50.634;3.062;2023-01-16T01:54:55;47.66;42.55;71.96;;
75467;Laerm;64050;50.634;3.062;2023-01-16T01:57:28;47.66;43.60;55.64;;
75467;Laerm;64050;50.634;3.062;2023-01-16T02:00:37;48.38;44.02;61.22;;
75467;Laerm;64050;50.634;3.062;2023-01-16T02:05:27;51.24;47.51;66.51;;
75467;Laerm;64050;50.634;3.062;2023-01-16T02:07:53;51.18;47.07;60.48;;
75467;Laerm;64050;50.634;3.062;2023-01-16T02:12:47;51.80;47.31;67.19;;
75467;Laerm;64050;50.634;3.062;2023-01-16T02:15:12;51.76;48.01;60.09;;
75467;Laerm;64050;50.634;3.062;2023-01-16T02:17:43;51.28;47.05;65.06;;
75467;Laerm;64050;50.634;3.062;2023-01-16T02:20:26;51.15;46.86;63.21;;
75467;Laerm;64050;50.634;3.062;2023-01-16T02:28:08;51.52;47.83;60.41;;
75467;Laerm;64050;50.634;3.062;2023-01-16T02:35:27;50.60;46.67;57.75;;
75467;Laerm;64050;50.634;3.062;2023-01-16T02:37:57;51.75;46.71;64.63;;
75467;Laerm;64050;50.634;3.062;2023-01-16T02:41:00;51.94;48.01;60.27;;
75467;Laerm;64050;50.634;3.062;2023-01-16T02:46:50;50.93;46.80;59.39;;
75467;Laerm;64050;50.634;3.062;2023-01-16T02:48:46;50.86;46.40;63.36;;
75467;Laerm;64050;50.634;3.062;2023-01-16T02:53:45;49.14;44.77;59.65;;
75467;Laerm;64050;50.634;3.062;2023-01-16T02:56:15;50.60;44.99;73.74;;
75467;Laerm;64050;50.634;3.062;2023-01-16T02:58:43;49.38;44.09;61.90;;
75467;Laerm;64050;50.634;3.062;2023-01-16T03:01:10;51.84;45.36;71.51;;
75467;Laerm;64050;50.634;3.062;2023-01-16T03:06:04;51.08;47.63;62.35;;
75467;Laerm;64050;50.634;3.062;2023-01-16T03:08:38;51.51;47.82;61.00;;
75467;Laerm;64050;50.634;3.062;2023-01-16T03:11:12;52.36;48.09;73.11;;
75467;Laerm;64050;50.634;3.062;2023-01-16T03:13:55;52.33;48.02;67.31;;
75467;Laerm;64050;50.634;3.062;2023-01-16T03:24:05;57.09;53.07;75.55;;
75467;Laerm;64050;50.634;3.062;2023-01-16T03:26:35;57.56;53.97;71.52;;
75467;Laerm;64050;50.634;3.062;2023-01-16T03:29:06;59.13;54.92;66.12;;
75467;Laerm;64050;50.634;3.062;2023-01-16T03:31:44;59.23;56.01;63.79;;
75467;Laerm;64050;50.634;3.062;2023-01-16T03:37:04;57.82;53.01;76.83;;
75467;Laerm;64050;50.634;3.062;2023-01-16T03:39:35;56.95;54.05;61.03;;
75467;Laerm;64050;50.634;3.062;2023-01-16T03:42:06;56.23;52.26;66.24;;
75467;Laerm;64050;50.634;3.062;2023-01-16T03:44:35;57.79;53.99;74.16;;
75467;Laerm;64050;50.634;3.062;2023-01-16T03:47:00;57.60;54.47;68.87;;
75467;Laerm;64050;50.634;3.062;2023-01-16T03:50:01;59.86;56.34;70.85;;
75467;Laerm;64050;50.634;3.062;2023-01-16T03:52:19;60.15;56.63;72.23;;
75467;Laerm;64050;50.634;3.062;2023-01-16T03:57:46;57.90;53.67;70.35;;
75467;Laerm;64050;50.634;3.062;2023-01-16T04:00:12;56.38;50.77;71.80;;
75467;Laerm;64050;50.634;3.062;2023-01-16T04:02:44;55.47;48.13;73.37;;
75467;Laerm;64050;50.634;3.062;2023-01-16T04:10:06;52.98;48.64;69.38;;
75467;Laerm;64050;50.634;3.062;2023-01-16T04:12:37;59.98;49.21;85.88;;
75467;Laerm;64050;50.634;3.062;2023-01-16T04:15:06;55.95;49.21;79.32;;
75467;Laerm;64050;50.634;3.062;2023-01-16T04:17:32;54.21;48.38;65.98;;
75467;Laerm;64050;50.634;3.062;2023-01-16T04:19:58;56.27;51.46;80.44;;
75467;Laerm;64050;50.634;3.062;2023-01-16T04:22:24;54.68;50.66;71.61;;
75467;Laerm;64050;50.634;3.062;2023-01-16T04:24:50;55.27;49.49;72.00;;
75467;Laerm;64050;50.634;3.062;2023-01-16T04:27:17;57.70;53.42;75.66;;
75467;Laerm;64050;50.634;3.062;2023-01-16T04:29:42;56.58;52.98;67.29;;
75467;Laerm;64050;50.634;3.062;2023-01-16T04:32:07;56.61;50.66;78.46;;
75467;Laerm;64050;50.634;3.062;2023-01-16T04:34:33;55.46;51.26;70.41;;
75467;Laerm;64050;50.634;3.062;2023-01-16T04:36:58;58.54;50.09;83.14;;
75467;Laerm;64050;50.634;3.062;2023-01-16T04:39:23;57.29;50.68;76.44;;
75467;Laerm;64050;50.634;3.062;2023-01-16T04:41:49;58.75;52.34;82.29;;
75467;Laerm;64050;50.634;3.062;2023-01-16T04:44:15;59.41;52.57;81.89;;
75467;Laerm;64050;50.634;3.062;2023-01-16T04:46:41;58.55;52.62;78.42;;
75467;Laerm;64050;50.634;3.062;2023-01-16T04:49:06;57.80;53.35;78.86;;
75467;Laerm;64050;50.634;3.062;2023-01-16T04:51:32;57.11;52.22;74.28;;
75467;Laerm;64050;50.634;3.062;2023-01-16T04:53:57;57.44;52.45;72.01;;
75467;Laerm;64050;50.634;3.062;2023-01-16T04:56:22;55.61;51.92;61.54;;
75467;Laerm;64050;50.634;3.062;2023-01-16T04:58:47;57.31;52.16;75.42;;
75467;Laerm;64050;50.634;3.062;2023-01-16T05:01:15;57.11;52.80;69.88;;
75467;Laerm;64050;50.634;3.062;2023-01-16T05:03:40;57.11;52.56;77.00;;
75467;Laerm;64050;50.634;3.062;2023-01-16T05:06:05;55.83;52.40;62.99;;
75467;Laerm;64050;50.634;3.062;2023-01-16T05:08:30;55.98;51.73;74.11;;
75467;Laerm;64050;50.634;3.062;2023-01-16T05:10:56;55.32;50.28;68.97;;
75467;Laerm;64050;50.634;3.062;2023-01-16T05:13:22;53.86;48.52;74.15;;
75467;Laerm;64050;50.634;3.062;2023-01-16T05:15:47;52.77;47.46;69.55;;
75467;Laerm;64050;50.634;3.062;2023-01-16T05:18:13;55.06;49.11;70.95;;
75467;Laerm;64050;50.634;3.062;2023-01-16T05:20:38;52.92;49.25;66.47;;
75467;Laerm;64050;50.634;3.062;2023-01-16T05:23:04;59.17;49.86;83.32;;
75467;Laerm;64050;50.634;3.062;2023-01-16T05:25:29;53.84;49.05;75.46;;
75467;Laerm;64050;50.634;3.062;2023-01-16T05:27:55;54.10;49.10;75.27;;
75467;Laerm;64050;50.634;3.062;2023-01-16T05:30:20;54.68;48.52;80.23;;
75467;Laerm;64050;50.634;3.062;2023-01-16T05:32:45;55.12;49.14;76.03;;
75467;Laerm;64050;50.634;3.062;2023-01-16T05:35:11;51.96;48.12;63.10;;
75467;Laerm;64050;50.634;3.062;2023-01-16T05:37:37;52.16;48.61;73.57;;
75467;Laerm;64050;50.634;3.062;2023-01-16T05:40:02;52.70;48.34;70.46;;
75467;Laerm;64050;50.634;3.062;2023-01-16T05:42:27;55.63;46.82;82.74;;
75467;Laerm;64050;50.634;3.062;2023-01-16T05:44:53;51.52;46.93;64.20;;
75467;Laerm;64050;50.634;3.062;2023-01-16T05:47:18;51.98;46.69;68.83;;
75467;Laerm;64050;50.634;3.062;2023-01-16T05:49:43;54.91;47.06;80.64;;
75467;Laerm;64050;50.634;3.062;2023-01-16T05:52:09;51.14;46.61;71.95;;
75467;Laerm;64050;50.634;3.062;2023-01-16T05:54:34;52.22;47.41;69.48;;
75467;Laerm;64050;50.634;3.062;2023-01-16T05:56:59;51.77;48.17;63.46;;
75467;Laerm;64050;50.634;3.062;2023-01-16T05:59:24;51.55;48.28;64.73;;
75467;Laerm;64050;50.634;3.062;2023-01-16T06:01:50;54.09;47.17;73.52;;
75467;Laerm;64050;50.634;3.062;2023-01-16T06:04:15;52.17;46.29;68.24;;
75467;Laerm;64050;50.634;3.062;2023-01-16T06:06:42;50.69;45.86;67.49;;
75467;Laerm;64050;50.634;3.062;2023-01-16T06:09:08;50.26;45.02;63.21;;
75467;Laerm;64050;50.634;3.062;2023-01-16T06:11:33;51.42;46.21;70.50;;
75467;Laerm;64050;50.634;3.062;2023-01-16T06:13:58;54.26;46.80;77.02;;
75467;Laerm;64050;50.634;3.062;2023-01-16T06:16:28;53.32;48.30;73.27;;
75467;Laerm;64050;50.634;3.062;2023-01-16T06:18:53;52.42;47.99;67.51;;
75467;Laerm;64050;50.634;3.062;2023-01-16T06:21:18;50.72;45.70;60.64;;
75467;Laerm;64050;50.634;3.062;2023-01-16T06:23:43;50.30;46.16;64.10;;
75467;Laerm;64050;50.634;3.062;2023-01-16T06:26:09;49.60;45.92;57.85;;
75467;Laerm;64050;50.634;3.062;2023-01-16T06:28:34;49.44;45.59;63.88;;
75467;Laerm;64050;50.634;3.062;2023-01-16T06:31:00;48.60;44.73;58.47;;
75467;Laerm;64050;50.634;3.062;2023-01-16T06:33:25;48.95;44.97;60.14;;
75467;Laerm;64050;50.634;3.062;2023-01-16T06:35:51;52.42;47.22;76.24;;
75467;Laerm;64050;50.634;3.062;2023-01-16T06:38:16;50.22;46.75;61.74;;
75467;Laerm;64050;50.634;3.062;2023-01-16T06:40:41;50.37;44.75;70.96;;
75467;Laerm;64050;50.634;3.062;2023-01-16T06:43:09;49.06;44.08;64.59;;
75467;Laerm;64050;50.634;3.062;2023-01-16T06:45:34;49.26;44.21;60.23;;
75467;Laerm;64050;50.634;3.062;2023-01-16T06:47:59;47.76;43.95;58.27;;
75467;Laerm;64050;50.634;3.062;2023-01-16T06:50:25;49.12;43.25;64.73;;
75467;Laerm;64050;50.634;3.062;2023-01-16T06:52:50;51.35;44.78;73.82;;
75467;Laerm;64050;50.634;3.062;2023-01-16T06:55:15;51.11;45.74;65.91;;
75467;Laerm;64050;50.634;3.062;2023-01-16T06:57:40;51.41;46.97;70.07;;
75467;Laerm;64050;50.634;3.062;2023-01-16T07:00:06;52.98;46.45;67.87;;
75467;Laerm;64050;50.634;3.062;2023-01-16T07:02:31;49.24;44.36;58.93;;
75467;Laerm;64050;50.634;3.062;2023-01-16T07:04:57;48.87;45.27;57.46;;
75467;Laerm;64050;50.634;3.062;2023-01-16T07:07:22;49.72;44.69;60.08;;
75467;Laerm;64050;50.634;3.062;2023-01-16T07:09:47;48.52;44.04;58.51;;
75467;Laerm;64050;50.634;3.062;2023-01-16T07:12:12;48.37;44.94;58.63;;
75467;Laerm;64050;50.634;3.062;2023-01-16T07:14:37;49.50;44.48;61.55;;
75467;Laerm;64050;50.634;3.062;2023-01-16T07:17:21;50.45;47.11;63.64;;
75467;Laerm;64050;50.634;3.062;2023-01-16T07:20:05;51.22;46.68;70.40;;
75467;Laerm;64050;50.634;3.062;2023-01-16T07:22:49;49.28;43.93;63.39;;
75467;Laerm;64050;50.634;3.062;2023-01-16T07:25:16;47.45;43.74;54.51;;
75467;Laerm;64050;50.634;3.062;2023-01-16T07:27:45;47.59;44.44;67.12;;
75467;Laerm;64050;50.634;3.062;2023-01-16T07:30:11;49.25;44.75;64.37;;
75467;Laerm;64050;50.634;3.062;2023-01-16T07:32:37;49.24;45.63;57.60;;
75467;Laerm;64050;50.634;3.062;2023-01-16T07:35:02;50.20;45.94;57.64;;
75467;Laerm;64050;50.634;3.062;2023-01-16T07:37:28;51.22;46.65;60.76;;
75467;Laerm;64050;50.634;3.062;2023-01-16T07:39:53;51.44;47.62;64.56;;
75467;Laerm;64050;50.634;3.062;2023-01-16T07:42:18;50.57;46.65;61.36;;
75467;Laerm;64050;50.634;3.062;2023-01-16T07:44:43;50.32;45.16;64.18;;
75467;Laerm;64050;50.634;3.062;2023-01-16T07:47:08;49.52;44.37;66.86;;
75467;Laerm;64050;50.634;3.062;2023-01-16T07:49:35;48.18;45.14;51.78;;
75467;Laerm;64050;50.634;3.062;2023-01-16T07:52:00;49.29;44.84;60.02;;
75467;Laerm;64050;50.634;3.062;2023-01-16T07:54:26;49.97;45.51;63.08;;
75467;Laerm;64050;50.634;3.062;2023-01-16T07:56:51;50.90;45.25;61.17;;
75467;Laerm;64050;50.634;3.062;2023-01-16T07:59:16;49.75;45.21;68.59;;
75467;Laerm;64050;50.634;3.062;2023-01-16T08:01:41;54.09;46.11;74.10;;
75467;Laerm;64050;50.634;3.062;2023-01-16T08:04:07;49.73;46.23;62.10;;
75467;Laerm;64050;50.634;3.062;2023-01-16T08:06:32;49.79;45.50;60.49;;
75467;Laerm;64050;50.634;3.062;2023-01-16T08:08:58;49.69;46.26;60.75;;
75467;Laerm;64050;50.634;3.062;2023-01-16T08:11:23;50.49;46.78;60.27;;
75467;Laerm;64050;50.634;3.062;2023-01-16T08:14:04;51.90;46.56;76.25;;
75467;Laerm;64050;50.634;3.062;2023-01-16T08:16:30;50.37;46.10;62.18;;
75467;Laerm;64050;50.634;3.062;2023-01-16T08:18:55;51.16;46.18;62.66;;
75467;Laerm;64050;50.634;3.062;2023-01-16T08:21:20;51.76;44.77;68.49;;
75467;Laerm;64050;50.634;3.062;2023-01-16T08:23:46;54.69;44.75;77.64;;
75467;Laerm;64050;50.634;3.062;2023-01-16T08:26:11;48.36;44.99;62.23;;
75467;Laerm;64050;50.634;3.062;2023-01-16T08:28:38;49.82;45.15;64.68;;
75467;Laerm;64050;50.634;3.062;2023-01-16T08:31:04;48.99;45.11;57.20;;
75467;Laerm;64050;50.634;3.062;2023-01-16T08:33:32;49.91;45.68;60.49;;
75467;Laerm;64050;50.634;3.062;2023-01-16T08:35:57;49.47;44.73;55.61;;
75467;Laerm;64050;50.634;3.062;2023-01-16T08:38:24;49.15;44.97;59.03;;
75467;Laerm;64050;50.634;3.062;2023-01-16T08:40:49;48.99;45.30;60.36;;
75467;Laerm;64050;50.634;3.062;2023-01-16T08:43:14;49.91;45.79;62.41;;
75467;Laerm;64050;50.634;3.062;2023-01-16T08:45:58;48.64;45.16;66.80;;
75467;Laerm;64050;50.634;3.062;2023-01-16T08:48:32;49.58;45.56;63.31;;
75467;Laerm;64050;50.634;3.062;2023-01-16T08:51:16;52.04;45.20;72.77;;
75467;Laerm;64050;50.634;3.062;2023-01-16T08:53:53;49.84;44.72;60.53;;
75467;Laerm;64050;50.634;3.062;2023-01-16T08:56:19;48.36;44.76;60.55;;
75467;Laerm;64050;50.634;3.062;2023-01-16T08:58:45;48.14;44.52;55.28;;
75467;Laerm;64050;50.634;3.062;2023-01-16T09:01:10;48.05;44.32;54.63;;
75467;Laerm;64050;50.634;3.062;2023-01-16T09:03:36;48.51;44.88;60.54;;
75467;Laerm;64050;50.634;3.062;2023-01-16T09:06:01;49.91;44.96;73.16;;
75467;Laerm;64050;50.634;3.062;2023-01-16T09:08:26;51.45;45.81;67.67;;
75467;Laerm;64050;50.634;3.062;2023-01-16T09:10:51;50.23;46.93;60.77;;
75467;Laerm;64050;50.634;3.062;2023-01-16T09:13:35;50.27;45.56;66.13;;
75467;Laerm;64050;50.634;3.062;2023-01-16T09:16:17;48.48;43.92;63.26;;
75467;Laerm;64050;50.634;3.062;2023-01-16T09:18:42;48.79;44.30;67.00;;
75467;Laerm;64050;50.634;3.062;2023-01-16T09:21:08;48.69;44.73;55.68;;
75467;Laerm;64050;50.634;3.062;2023-01-16T09:23:33;51.05;44.74;70.86;;
75467;Laerm;64050;50.634;3.062;2023-01-16T09:25:58;49.37;44.93;62.08;;
75467;Laerm;64050;50.634;3.062;2023-01-16T09:28:23;54.39;46.87;76.09;;
75467;Laerm;64050;50.634;3.062;2023-01-16T09:30:50;49.94;45.20;66.33;;
75467;Laerm;64050;50.634;3.062;2023-01-16T09:33:15;49.68;45.00;63.79;;
75467;Laerm;64050;50.634;3.062;2023-01-16T09:35:41;49.03;44.24;67.88;;
75467;Laerm;64050;50.634;3.062;2023-01-16T09:38:06;47.92;43.72;62.15;;
75467;Laerm;64050;50.634;3.062;2023-01-16T09:40:31;54.14;44.02;81.01;;
75467;Laerm;64050;50.634;3.062;2023-01-16T09:46:01;48.45;44.29;58.99;;
75467;Laerm;64050;50.634;3.062;2023-01-16T09:48:29;52.72;43.62;68.89;;
75467;Laerm;64050;50.634;3.062;2023-01-16T09:50:57;55.34;43.57;72.18;;
75467;Laerm;64050;50.634;3.062;2023-01-16T09:56:28;53.32;44.25;73.00;;
75467;Laerm;64050;50.634;3.062;2023-01-16T09:59:26;54.38;43.44;78.28;;
75467;Laerm;64050;50.634;3.062;2023-01-16T10:01:54;49.37;43.13;54.82;;
75467;Laerm;64050;50.634;3.062;2023-01-16T10:04:22;51.30;47.52;63.57;;
75467;Laerm;64050;50.634;3.062;2023-01-16T10:12:11;55.69;48.88;69.39;;
75467;Laerm;64050;50.634;3.062;2023-01-16T10:22:42;52.59;48.94;66.45;;
75467;Laerm;64050;50.634;3.062;2023-01-16T10:27:46;53.36;48.53;64.26;;
75467;Laerm;64050;50.634;3.062;2023-01-16T10:30:19;52.53;49.51;62.20;;
75467;Laerm;64050;50.634;3.062;2023-01-16T10:32:59;51.93;48.77;58.84;;
75467;Laerm;64050;50.634;3.062;2023-01-16T10:35:29;57.44;47.99;81.89;;
75467;Laerm;64050;50.634;3.062;2023-01-16T10:37:57;54.56;49.27;74.69;;
75467;Laerm;64050;50.634;3.062;2023-01-16T10:40:27;56.27;48.94;79.40;;
75467;Laerm;64050;50.634;3.062;2023-01-16T10:45:56;53.15;48.99;70.90;;
75467;Laerm;64050;50.634;3.062;2023-01-16T10:48:43;52.13;48.92;68.86;;
75467;Laerm;64050;50.634;3.062;2023-01-16T10:51:26;52.40;49.14;62.10;;
75467;Laerm;64050;50.634;3.062;2023-01-16T10:53:52;52.12;49.08;68.06;;
75467;Laerm;64050;50.634;3.062;2023-01-16T10:56:17;51.96;49.02;59.22;;
75467;Laerm;64050;50.634;3.062;2023-01-16T10:58:42;52.53;48.53;61.43;;
75467;Laerm;64050;50.634;3.062;2023-01-16T11:01:14;52.37;48.75;67.55;;
75467;Laerm;64050;50.634;3.062;2023-01-16T11:03:42;52.21;48.91;63.55;;
75467;Laerm;64050;50.634;3.062;2023-01-16T11:08:36;52.73;48.86;62.63;;
75467;Laerm;64050;50.634;3.062;2023-01-16T11:11:02;51.89;48.15;65.58;;
75467;Laerm;64050;50.634;3.062;2023-01-16T11:13:28;53.44;49.12;64.94;;
75467;Laerm;64050;50.634;3.062;2023-01-16T11:19:14;52.43;48.69;76.82;;
75467;Laerm;64050;50.634;3.062;2023-01-16T11:21:41;51.99;48.78;61.84;;
75467;Laerm;64050;50.634;3.062;2023-01-16T11:24:14;52.20;48.86;59.11;;
75467;Laerm;64050;50.634;3.062;2023-01-16T11:26:41;53.16;48.41;72.53;;
75467;Laerm;64050;50.634;3.062;2023-01-16T11:29:12;54.41;48.67;73.61;;
75467;Laerm;64050;50.634;3.062;2023-01-16T11:31:40;52.53;48.29;70.73;;
75467;Laerm;64050;50.634;3.062;2023-01-16T11:34:10;49.90;44.97;62.44;;
75467;Laerm;64050;50.634;3.062;2023-01-16T11:36:36;48.82;44.75;58.13;;
75467;Laerm;64050;50.634;3.062;2023-01-16T11:39:03;50.96;45.62;61.21;;
75467;Laerm;64050;50.634;3.062;2023-01-16T11:41:32;51.94;48.07;57.14;;
75467;Laerm;64050;50.634;3.062;2023-01-16T11:46:58;52.81;48.92;61.33;;
75467;Laerm;64050;50.634;3.062;2023-01-16T11:49:24;53.37;48.72;67.61;;
75467;Laerm;64050;50.634;3.062;2023-01-16T11:51:52;52.37;47.97;63.09;;
75467;Laerm;64050;50.634;3.062;2023-01-16T11:54:19;52.46;48.88;59.75;;
75467;Laerm;64050;50.634;3.062;2023-01-16T11:56:53;49.96;45.39;61.36;;
75467;Laerm;64050;50.634;3.062;2023-01-16T11:59:27;52.27;45.33;72.98;;
75467;Laerm;64050;50.634;3.062;2023-01-16T12:04:58;51.67;47.55;59.87;;
75467;Laerm;64050;50.634;3.062;2023-01-16T12:10:17;51.25;46.37;60.81;;
75467;Laerm;64050;50.634;3.062;2023-01-16T12:12:54;50.91;46.36;59.92;;
75467;Laerm;64050;50.634;3.062;2023-01-16T12:18:16;52.52;48.51;62.34;;
75467;Laerm;64050;50.634;3.062;2023-01-16T12:25:52;55.94;52.55;62.17;;
75467;Laerm;64050;50.634;3.062;2023-01-16T12:28:26;55.09;51.04;62.74;;
75467;Laerm;64050;50.634;3.062;2023-01-16T12:33:28;55.59;50.77;69.18;;
75467;Laerm;64050;50.634;3.062;2023-01-16T12:36:00;56.15;51.82;63.36;;
75467;Laerm;64050;50.634;3.062;2023-01-16T12:38:35;55.54;51.20;63.38;;
75467;Laerm;64050;50.634;3.062;2023-01-16T12:41:17;55.32;50.42;64.19;;
75467;Laerm;64050;50.634;3.062;2023-01-16T12:57:23;53.65;48.51;60.99;;
75467;Laerm;64050;50.634;3.062;2023-01-16T13:02:40;55.89;51.39;65.45;;
75467;Laerm;64050;50.634;3.062;2023-01-16T13:05:13;54.22;48.96;78.04;;
75467;Laerm;64050;50.634;3.062;2023-01-16T13:07:56;56.21;47.96;80.75;;
75467;Laerm;64050;50.634;3.062;2023-01-16T13:10:24;53.46;47.46;74.84;;
75467;Laerm;64050;50.634;3.062;2023-01-16T13:13:13;54.50;47.46;71.40;;
75467;Laerm;64050;50.634;3.062;2023-01-16T13:15:47;67.87;49.63;98.25;;
75467;Laerm;64050;50.634;3.062;2023-01-16T13:18:19;56.80;49.94;68.39;;
75467;Laerm;64050;50.634;3.062;2023-01-16T13:20:47;58.84;51.69;65.45;;
75467;Laerm;64050;50.634;3.062;2023-01-16T13:23:25;56.00;49.08;68.44;;
75467;Laerm;64050;50.634;3.062;2023-01-16T13:25:56;52.32;46.45;66.75;;
75467;Laerm;64050;50.634;3.062;2023-01-16T13:30:57;51.19;46.46;60.89;;
75467;Laerm;64050;50.634;3.062;2023-01-16T13:33:24;51.10;45.89;59.92;;
75467;Laerm;64050;50.634;3.062;2023-01-16T13:36:41;51.76;47.43;64.64;;
75467;Laerm;64050;50.634;3.062;2023-01-16T13:38:44;52.78;47.73;67.45;;
75467;Laerm;64050;50.634;3.062;2023-01-16T13:41:25;53.12;48.38;59.77;;
75467;Laerm;64050;50.634;3.062;2023-01-16T13:43:53;55.16;49.88;75.72;;
75467;Laerm;64050;50.634;3.062;2023-01-16T13:46:39;52.73;47.65;68.87;;
75467;Laerm;64050;50.634;3.062;2023-01-16T13:49:05;54.35;48.87;70.56;;
75467;Laerm;64050;50.634;3.062;2023-01-16T13:51:31;54.11;48.86;74.52;;
75467;Laerm;64050;50.634;3.062;2023-01-16T13:54:07;53.39;48.83;73.31;;
75467;Laerm;64050;50.634;3.062;2023-01-16T13:56:35;53.56;50.03;68.01;;
75467;Laerm;64050;50.634;3.062;2023-01-16T13:59:06;52.72;49.01;64.90;;
75467;Laerm;64050;50.634;3.062;2023-01-16T14:04:11;53.07;49.03;60.93;;
75467;Laerm;64050;50.634;3.062;2023-01-16T14:17:10;55.92;50.88;66.00;;
75467;Laerm;64050;50.634;3.062;2023-01-16T14:19:36;56.42;50.27;68.77;;
75467;Laerm;64050;50.634;3.062;2023-01-16T14:22:02;54.47;49.38;75.73;;
75467;Laerm;64050;50.634;3.062;2023-01-16T14:24:37;55.29;48.75;71.25;;
75467;Laerm;64050;50.634;3.062;2023-01-16T14:27:03;55.26;50.50;69.03;;
75467;Laerm;64050;50.634;3.062;2023-01-16T14:29:30;58.99;49.55;76.85;;
75467;Laerm;64050;50.634;3.062;2023-01-16T14:32:00;56.82;50.59;78.90;;
75467;Laerm;64050;50.634;3.062;2023-01-16T14:34:28;55.53;50.54;65.76;;
75467;Laerm;64050;50.634;3.062;2023-01-16T14:36:55;54.45;49.87;65.50;;
75467;Laerm;64050;50.634;3.062;2023-01-16T14:41:52;64.42;50.49;84.23;;
75467;Laerm;64050;50.634;3.062;2023-01-16T14:44:57;61.93;49.16;83.54;;
75467;Laerm;64050;50.634;3.062;2023-01-16T14:47:51;59.68;49.29;82.11;;
75467;Laerm;64050;50.634;3.062;2023-01-16T14:50:42;62.44;49.01;85.61;;
75467;Laerm;64050;50.634;3.062;2023-01-16T14:53:27;63.26;49.07;84.70;;
75467;Laerm;64050;50.634;3.062;2023-01-16T14:56:23;56.46;51.64;65.44;;
75467;Laerm;64050;50.634;3.062;2023-01-16T14:58:52;58.51;53.04;70.41;;
75467;Laerm;64050;50.634;3.062;2023-01-16T15:01:20;56.37;51.12;64.23;;
75467;Laerm;64050;50.634;3.062;2023-01-16T15:04:05;59.39;48.21;84.41;;
75467;Laerm;64050;50.634;3.062;2023-01-16T15:06:34;58.01;50.92;79.14;;
75467;Laerm;64050;50.634;3.062;2023-01-16T15:09:00;54.64;50.45;71.85;;
75467;Laerm;64050;50.634;3.062;2023-01-16T15:11:29;55.21;50.14;67.71;;
75467;Laerm;64050;50.634;3.062;2023-01-16T15:17:13;62.45;48.01;83.57;;
75467;Laerm;64050;50.634;3.062;2023-01-16T15:22:49;79.52;50.15;89.88;;
75467;Laerm;64050;50.634;3.062;2023-01-16T15:25:37;55.16;49.91;67.10;;
75467;Laerm;64050;50.634;3.062;2023-01-16T15:28:13;60.93;51.24;78.17;;
75467;Laerm;64050;50.634;3.062;2023-01-16T15:30:41;55.28;50.93;65.16;;
75467;Laerm;64050;50.634;3.062;2023-01-16T15:33:20;53.19;48.26;64.23;;
75467;Laerm;64050;50.634;3.062;2023-01-16T15:36:09;54.80;49.11;73.41;;
75467;Laerm;64050;50.634;3.062;2023-01-16T15:38:38;52.96;48.03;63.20;;
75467;Laerm;64050;50.634;3.062;2023-01-16T15:41:04;53.31;47.89;65.40;;
75467;Laerm;64050;50.634;3.062;2023-01-16T15:43:29;52.70;48.22;65.10;;
75467;Laerm;64050;50.634;3.062;2023-01-16T15:46:48;51.53;45.58;63.83;;
75467;Laerm;64050;50.634;3.062;2023-01-16T15:51:33;52.05;45.56;65.93;;
75467;Laerm;64050;50.634;3.062;2023-01-16T15:53:58;51.30;44.62;61.49;;
75467;Laerm;64050;50.634;3.062;2023-01-16T15:58:50;54.76;48.93;64.89;;
75467;Laerm;64050;50.634;3.062;2023-01-16T16:01:23;56.09;49.72;69.49;;
75467;Laerm;64050;50.634;3.062;2023-01-16T16:03:49;55.87;49.42;67.65;;
75467;Laerm;64050;50.634;3.062;2023-01-16T16:06:15;54.94;46.32;62.82;;
75467;Laerm;64050;50.634;3.062;2023-01-16T16:08:43;55.83;48.21;65.50;;
75467;Laerm;64050;50.634;3.062;2023-01-16T16:11:20;57.38;49.70;78.02;;